Iberville, Canada
Current Conditions -  °F | °C
As of 12:00 AM on Monday 20 Oct 2014 (Local Time) from CYHU Reporting Station
Overcast Overcast  
Wind Chill:   Ceiling: 4500
Heat Index:   Visibility: 9mi
Dew Point: -5°   Wind: 7mph
Humidity: 52%   Direction: 320°NW
Pressure: 29.96"   Gusts: NA
Location:  45.32°N, 73.23°W
Report Text: CYHU 200400Z AUTO 32006KT 9SM OVC045 04/M05 A2996 RMK SLP148
Loading
Personal Weather Stations






























Interactive Weather Map
Tropical Storm Tracking
New forecast layout! Learn more

10-Day Weather Forecast

Advertisements
Track Severe Weather on mobile